sensor_id;sensor_type;location;lat;lon;timestamp;P1;durP1;ratioP1;P2;durP2;ratioP2
13560;SDS011;6852;51.686;5.314;2023-04-15T00:01:37;5.53;;;3.53;;
13560;SDS011;6852;51.686;5.314;2023-04-15T00:04:04;5.33;;;3.57;;
13560;SDS011;6852;51.686;5.314;2023-04-15T00:06:31;5.23;;;3.00;;
13560;SDS011;6852;51.686;5.314;2023-04-15T00:08:58;4.97;;;3.17;;
13560;SDS011;6852;51.686;5.314;2023-04-15T00:11:26;5.83;;;3.27;;
13560;SDS011;6852;51.686;5.314;2023-04-15T00:13:54;7.23;;;4.00;;
13560;SDS011;6852;51.686;5.314;2023-04-15T00:16:20;7.67;;;3.10;;
13560;SDS011;6852;51.686;5.314;2023-04-15T00:18:47;5.57;;;3.30;;
13560;SDS011;6852;51.686;5.314;2023-04-15T00:21:14;6.77;;;3.47;;
13560;SDS011;6852;51.686;5.314;2023-04-15T00:23:41;4.03;;;3.60;;
13560;SDS011;6852;51.686;5.314;2023-04-15T00:26:09;8.53;;;3.90;;
13560;SDS011;6852;51.686;5.314;2023-04-15T00:28:36;5.90;;;3.17;;
13560;SDS011;6852;51.686;5.314;2023-04-15T00:31:03;9.40;;;3.83;;
13560;SDS011;6852;51.686;5.314;2023-04-15T00:33:30;9.80;;;3.30;;
13560;SDS011;6852;51.686;5.314;2023-04-15T00:35:58;8.17;;;4.17;;
13560;SDS011;6852;51.686;5.314;2023-04-15T00:38:24;9.73;;;3.87;;
13560;SDS011;6852;51.686;5.314;2023-04-15T00:40:51;4.40;;;3.13;;
13560;SDS011;6852;51.686;5.314;2023-04-15T00:43:19;7.60;;;3.77;;
13560;SDS011;6852;51.686;5.314;2023-04-15T00:45:46;9.13;;;4.20;;
13560;SDS011;6852;51.686;5.314;2023-04-15T00:48:13;8.13;;;3.80;;
13560;SDS011;6852;51.686;5.314;2023-04-15T00:50:40;6.93;;;3.90;;
13560;SDS011;6852;51.686;5.314;2023-04-15T00:53:07;7.97;;;3.57;;
13560;SDS011;6852;51.686;5.314;2023-04-15T00:55:34;6.43;;;3.60;;
13560;SDS011;6852;51.686;5.314;2023-04-15T00:58:02;7.13;;;4.27;;
13560;SDS011;6852;51.686;5.314;2023-04-15T01:00:29;5.07;;;3.43;;
13560;SDS011;6852;51.686;5.314;2023-04-15T01:02:56;5.67;;;3.87;;
13560;SDS011;6852;51.686;5.314;2023-04-15T01:05:23;6.40;;;3.93;;
13560;SDS011;6852;51.686;5.314;2023-04-15T01:07:50;6.83;;;4.10;;
13560;SDS011;6852;51.686;5.314;2023-04-15T01:10:18;4.90;;;3.70;;
13560;SDS011;6852;51.686;5.314;2023-04-15T01:12:45;6.10;;;3.87;;
13560;SDS011;6852;51.686;5.314;2023-04-15T01:15:12;5.90;;;4.10;;
13560;SDS011;6852;51.686;5.314;2023-04-15T01:17:38;6.33;;;3.70;;
13560;SDS011;6852;51.686;5.314;2023-04-15T01:20:06;5.93;;;4.23;;
13560;SDS011;6852;51.686;5.314;2023-04-15T01:22:35;8.20;;;4.50;;
13560;SDS011;6852;51.686;5.314;2023-04-15T01:25:14;8.57;;;4.47;;
13560;SDS011;6852;51.686;5.314;2023-04-15T01:27:44;6.63;;;4.53;;
13560;SDS011;6852;51.686;5.314;2023-04-15T01:30:11;9.17;;;4.83;;
13560;SDS011;6852;51.686;5.314;2023-04-15T01:32:38;5.03;;;4.03;;
13560;SDS011;6852;51.686;5.314;2023-04-15T01:35:05;5.67;;;4.30;;
13560;SDS011;6852;51.686;5.314;2023-04-15T01:37:32;8.00;;;3.93;;
13560;SDS011;6852;51.686;5.314;2023-04-15T01:40:00;6.40;;;3.97;;
13560;SDS011;6852;51.686;5.314;2023-04-15T01:42:27;6.83;;;4.70;;
13560;SDS011;6852;51.686;5.314;2023-04-15T01:44:54;7.10;;;4.70;;
13560;SDS011;6852;51.686;5.314;2023-04-15T01:47:21;10.93;;;4.10;;
13560;SDS011;6852;51.686;5.314;2023-04-15T01:49:48;7.83;;;4.57;;
13560;SDS011;6852;51.686;5.314;2023-04-15T01:52:15;8.13;;;4.50;;
13560;SDS011;6852;51.686;5.314;2023-04-15T01:54:41;7.30;;;4.30;;
13560;SDS011;6852;51.686;5.314;2023-04-15T01:57:08;5.43;;;4.40;;
13560;SDS011;6852;51.686;5.314;2023-04-15T01:59:35;7.10;;;4.07;;
13560;SDS011;6852;51.686;5.314;2023-04-15T02:02:02;7.87;;;4.17;;
13560;SDS011;6852;51.686;5.314;2023-04-15T02:04:30;10.40;;;4.20;;
13560;SDS011;6852;51.686;5.314;2023-04-15T02:06:56;5.00;;;4.27;;
13560;SDS011;6852;51.686;5.314;2023-04-15T02:09:23;7.07;;;4.30;;
13560;SDS011;6852;51.686;5.314;2023-04-15T02:11:51;5.10;;;3.87;;
13560;SDS011;6852;51.686;5.314;2023-04-15T02:14:18;6.37;;;4.93;;
13560;SDS011;6852;51.686;5.314;2023-04-15T02:16:45;5.60;;;4.37;;
13560;SDS011;6852;51.686;5.314;2023-04-15T02:19:12;5.53;;;4.33;;
13560;SDS011;6852;51.686;5.314;2023-04-15T02:21:40;8.43;;;4.90;;
13560;SDS011;6852;51.686;5.314;2023-04-15T02:24:07;5.77;;;4.90;;
13560;SDS011;6852;51.686;5.314;2023-04-15T02:26:34;7.70;;;4.73;;
13560;SDS011;6852;51.686;5.314;2023-04-15T02:29:01;5.33;;;4.60;;
13560;SDS011;6852;51.686;5.314;2023-04-15T02:31:29;9.33;;;4.40;;
13560;SDS011;6852;51.686;5.314;2023-04-15T02:33:59;6.40;;;4.20;;
13560;SDS011;6852;51.686;5.314;2023-04-15T02:36:28;7.57;;;5.03;;
13560;SDS011;6852;51.686;5.314;2023-04-15T02:38:56;8.57;;;4.40;;
13560;SDS011;6852;51.686;5.314;2023-04-15T02:41:23;5.20;;;4.23;;
13560;SDS011;6852;51.686;5.314;2023-04-15T02:43:53;7.40;;;4.53;;
13560;SDS011;6852;51.686;5.314;2023-04-15T02:46:20;6.47;;;4.03;;
13560;SDS011;6852;51.686;5.314;2023-04-15T02:48:48;8.77;;;4.63;;
13560;SDS011;6852;51.686;5.314;2023-04-15T02:51:17;6.57;;;4.77;;
13560;SDS011;6852;51.686;5.314;2023-04-15T02:53:46;5.67;;;4.30;;
13560;SDS011;6852;51.686;5.314;2023-04-15T02:56:13;5.80;;;4.53;;
13560;SDS011;6852;51.686;5.314;2023-04-15T02:58:42;6.63;;;4.60;;
13560;SDS011;6852;51.686;5.314;2023-04-15T03:01:15;6.47;;;5.20;;
13560;SDS011;6852;51.686;5.314;2023-04-15T03:03:42;8.33;;;4.87;;
13560;SDS011;6852;51.686;5.314;2023-04-15T03:06:09;7.07;;;5.37;;
13560;SDS011;6852;51.686;5.314;2023-04-15T03:08:36;9.13;;;5.20;;
13560;SDS011;6852;51.686;5.314;2023-04-15T03:11:03;9.80;;;5.07;;
13560;SDS011;6852;51.686;5.314;2023-04-15T03:13:30;7.87;;;5.10;;
13560;SDS011;6852;51.686;5.314;2023-04-15T03:15:57;5.87;;;5.20;;
13560;SDS011;6852;51.686;5.314;2023-04-15T03:18:24;8.80;;;5.80;;
13560;SDS011;6852;51.686;5.314;2023-04-15T03:20:51;6.77;;;5.50;;
13560;SDS011;6852;51.686;5.314;2023-04-15T03:23:18;7.73;;;5.93;;
13560;SDS011;6852;51.686;5.314;2023-04-15T03:25:45;7.07;;;6.30;;
13560;SDS011;6852;51.686;5.314;2023-04-15T03:28:12;6.50;;;5.47;;
13560;SDS011;6852;51.686;5.314;2023-04-15T03:30:39;12.73;;;6.53;;
13560;SDS011;6852;51.686;5.314;2023-04-15T03:33:06;9.43;;;5.80;;
13560;SDS011;6852;51.686;5.314;2023-04-15T03:35:33;10.80;;;6.30;;
13560;SDS011;6852;51.686;5.314;2023-04-15T03:38:00;7.43;;;5.63;;
13560;SDS011;6852;51.686;5.314;2023-04-15T03:40:27;10.37;;;6.43;;
13560;SDS011;6852;51.686;5.314;2023-04-15T03:42:54;7.27;;;5.67;;
13560;SDS011;6852;51.686;5.314;2023-04-15T03:45:21;8.97;;;6.33;;
13560;SDS011;6852;51.686;5.314;2023-04-15T03:47:48;7.50;;;5.83;;
13560;SDS011;6852;51.686;5.314;2023-04-15T03:50:15;7.47;;;6.30;;
13560;SDS011;6852;51.686;5.314;2023-04-15T03:52:43;9.03;;;5.83;;
13560;SDS011;6852;51.686;5.314;2023-04-15T03:55:10;6.93;;;5.30;;
13560;SDS011;6852;51.686;5.314;2023-04-15T03:57:37;9.47;;;6.80;;
13560;SDS011;6852;51.686;5.314;2023-04-15T04:00:05;8.33;;;6.30;;
13560;SDS011;6852;51.686;5.314;2023-04-15T04:02:32;7.60;;;6.00;;
13560;SDS011;6852;51.686;5.314;2023-04-15T04:05:00;7.80;;;5.87;;
13560;SDS011;6852;51.686;5.314;2023-04-15T04:07:27;7.80;;;6.03;;
13560;SDS011;6852;51.686;5.314;2023-04-15T04:09:55;7.63;;;6.10;;
13560;SDS011;6852;51.686;5.314;2023-04-15T04:12:22;11.80;;;6.93;;
13560;SDS011;6852;51.686;5.314;2023-04-15T04:14:49;9.87;;;6.27;;
13560;SDS011;6852;51.686;5.314;2023-04-15T04:17:16;8.03;;;6.43;;
13560;SDS011;6852;51.686;5.314;2023-04-15T04:19:43;9.13;;;6.00;;
13560;SDS011;6852;51.686;5.314;2023-04-15T04:22:10;9.77;;;6.00;;
13560;SDS011;6852;51.686;5.314;2023-04-15T04:24:37;8.07;;;6.00;;
13560;SDS011;6852;51.686;5.314;2023-04-15T04:27:04;10.13;;;6.50;;
13560;SDS011;6852;51.686;5.314;2023-04-15T04:29:31;6.97;;;6.13;;
13560;SDS011;6852;51.686;5.314;2023-04-15T04:31:58;8.50;;;6.17;;
13560;SDS011;6852;51.686;5.314;2023-04-15T04:34:25;8.17;;;5.50;;
13560;SDS011;6852;51.686;5.314;2023-04-15T04:36:52;7.07;;;6.13;;
13560;SDS011;6852;51.686;5.314;2023-04-15T04:39:19;8.47;;;6.07;;
13560;SDS011;6852;51.686;5.314;2023-04-15T04:41:45;8.47;;;6.43;;
13560;SDS011;6852;51.686;5.314;2023-04-15T04:44:12;8.03;;;6.70;;
13560;SDS011;6852;51.686;5.314;2023-04-15T04:46:39;8.83;;;6.60;;
13560;SDS011;6852;51.686;5.314;2023-04-15T04:49:06;7.53;;;5.87;;
13560;SDS011;6852;51.686;5.314;2023-04-15T04:51:33;8.07;;;6.60;;
13560;SDS011;6852;51.686;5.314;2023-04-15T04:54:00;7.70;;;6.83;;
13560;SDS011;6852;51.686;5.314;2023-04-15T04:56:29;10.13;;;6.17;;
13560;SDS011;6852;51.686;5.314;2023-04-15T04:58:55;8.40;;;6.93;;
13560;SDS011;6852;51.686;5.314;2023-04-15T05:01:22;8.63;;;6.43;;
13560;SDS011;6852;51.686;5.314;2023-04-15T05:03:49;9.20;;;7.10;;
13560;SDS011;6852;51.686;5.314;2023-04-15T05:06:17;8.57;;;6.43;;
13560;SDS011;6852;51.686;5.314;2023-04-15T05:08:43;6.67;;;5.67;;
13560;SDS011;6852;51.686;5.314;2023-04-15T05:11:12;10.27;;;6.00;;
13560;SDS011;6852;51.686;5.314;2023-04-15T05:13:39;8.37;;;6.67;;
13560;SDS011;6852;51.686;5.314;2023-04-15T05:16:06;8.07;;;6.17;;
13560;SDS011;6852;51.686;5.314;2023-04-15T05:18:33;8.27;;;5.90;;
13560;SDS011;6852;51.686;5.314;2023-04-15T05:21:00;6.93;;;6.00;;
13560;SDS011;6852;51.686;5.314;2023-04-15T05:23:28;6.20;;;5.60;;
13560;SDS011;6852;51.686;5.314;2023-04-15T05:25:55;9.07;;;6.13;;
13560;SDS011;6852;51.686;5.314;2023-04-15T05:28:21;7.97;;;6.40;;
13560;SDS011;6852;51.686;5.314;2023-04-15T05:30:48;7.20;;;5.90;;
13560;SDS011;6852;51.686;5.314;2023-04-15T05:33:15;7.63;;;6.23;;
13560;SDS011;6852;51.686;5.314;2023-04-15T05:35:42;9.40;;;5.90;;
13560;SDS011;6852;51.686;5.314;2023-04-15T05:38:09;7.80;;;6.43;;
13560;SDS011;6852;51.686;5.314;2023-04-15T05:40:36;7.60;;;6.63;;
13560;SDS011;6852;51.686;5.314;2023-04-15T05:43:03;8.73;;;6.60;;
13560;SDS011;6852;51.686;5.314;2023-04-15T05:45:30;8.07;;;6.37;;
13560;SDS011;6852;51.686;5.314;2023-04-15T05:47:57;10.40;;;6.80;;
13560;SDS011;6852;51.686;5.314;2023-04-15T05:50:24;8.93;;;6.33;;
13560;SDS011;6852;51.686;5.314;2023-04-15T05:52:51;9.53;;;6.57;;
13560;SDS011;6852;51.686;5.314;2023-04-15T05:55:18;7.93;;;5.80;;
13560;SDS011;6852;51.686;5.314;2023-04-15T05:57:45;10.17;;;6.77;;
13560;SDS011;6852;51.686;5.314;2023-04-15T06:00:12;10.53;;;6.70;;
13560;SDS011;6852;51.686;5.314;2023-04-15T06:02:40;9.50;;;6.30;;
13560;SDS011;6852;51.686;5.314;2023-04-15T06:05:07;7.87;;;5.77;;
13560;SDS011;6852;51.686;5.314;2023-04-15T06:07:36;11.00;;;6.47;;
13560;SDS011;6852;51.686;5.314;2023-04-15T06:10:03;7.33;;;6.00;;
13560;SDS011;6852;51.686;5.314;2023-04-15T06:12:31;8.77;;;6.13;;
13560;SDS011;6852;51.686;5.314;2023-04-15T06:14:58;7.67;;;6.20;;
13560;SDS011;6852;51.686;5.314;2023-04-15T06:17:25;7.03;;;6.27;;
13560;SDS011;6852;51.686;5.314;2023-04-15T06:19:52;10.40;;;6.97;;
13560;SDS011;6852;51.686;5.314;2023-04-15T06:22:23;12.43;;;7.00;;
13560;SDS011;6852;51.686;5.314;2023-04-15T06:24:50;7.67;;;6.67;;
13560;SDS011;6852;51.686;5.314;2023-04-15T06:27:17;9.43;;;6.57;;
13560;SDS011;6852;51.686;5.314;2023-04-15T06:29:44;9.23;;;6.63;;
13560;SDS011;6852;51.686;5.314;2023-04-15T06:32:11;9.33;;;6.67;;
13560;SDS011;6852;51.686;5.314;2023-04-15T06:34:38;8.70;;;5.90;;
13560;SDS011;6852;51.686;5.314;2023-04-15T06:37:05;8.33;;;6.07;;
13560;SDS011;6852;51.686;5.314;2023-04-15T06:39:32;7.97;;;6.63;;
13560;SDS011;6852;51.686;5.314;2023-04-15T06:41:59;7.90;;;6.50;;
13560;SDS011;6852;51.686;5.314;2023-04-15T06:44:26;12.33;;;7.03;;
13560;SDS011;6852;51.686;5.314;2023-04-15T06:46:54;8.33;;;6.33;;
13560;SDS011;6852;51.686;5.314;2023-04-15T06:49:21;8.17;;;6.33;;
13560;SDS011;6852;51.686;5.314;2023-04-15T06:51:48;8.53;;;6.10;;
13560;SDS011;6852;51.686;5.314;2023-04-15T06:54:15;9.77;;;7.03;;
13560;SDS011;6852;51.686;5.314;2023-04-15T06:56:42;8.90;;;6.60;;
13560;SDS011;6852;51.686;5.314;2023-04-15T06:59:08;9.67;;;6.93;;
13560;SDS011;6852;51.686;5.314;2023-04-15T07:01:35;6.83;;;5.87;;
13560;SDS011;6852;51.686;5.314;2023-04-15T07:04:02;8.60;;;6.40;;
13560;SDS011;6852;51.686;5.314;2023-04-15T07:06:29;9.20;;;6.70;;
13560;SDS011;6852;51.686;5.314;2023-04-15T07:08:58;7.40;;;6.00;;
13560;SDS011;6852;51.686;5.314;2023-04-15T07:11:25;8.60;;;6.13;;
13560;SDS011;6852;51.686;5.314;2023-04-15T07:13:52;8.67;;;6.03;;
13560;SDS011;6852;51.686;5.314;2023-04-15T07:16:19;8.03;;;5.43;;
13560;SDS011;6852;51.686;5.314;2023-04-15T07:18:47;7.80;;;6.23;;
13560;SDS011;6852;51.686;5.314;2023-04-15T07:21:14;8.50;;;6.37;;
13560;SDS011;6852;51.686;5.314;2023-04-15T07:23:41;7.63;;;5.80;;
13560;SDS011;6852;51.686;5.314;2023-04-15T07:26:08;8.10;;;6.07;;
13560;SDS011;6852;51.686;5.314;2023-04-15T07:28:35;9.27;;;6.60;;
13560;SDS011;6852;51.686;5.314;2023-04-15T07:31:01;8.53;;;5.30;;
13560;SDS011;6852;51.686;5.314;2023-04-15T07:33:29;7.57;;;6.17;;
13560;SDS011;6852;51.686;5.314;2023-04-15T07:35:56;7.70;;;6.57;;
13560;SDS011;6852;51.686;5.314;2023-04-15T07:38:23;8.43;;;5.87;;
13560;SDS011;6852;51.686;5.314;2023-04-15T07:40:50;11.80;;;7.20;;
13560;SDS011;6852;51.686;5.314;2023-04-15T07:43:17;9.23;;;6.20;;
13560;SDS011;6852;51.686;5.314;2023-04-15T07:45:45;9.23;;;6.17;;
13560;SDS011;6852;51.686;5.314;2023-04-15T07:48:12;8.23;;;6.60;;
13560;SDS011;6852;51.686;5.314;2023-04-15T07:50:39;9.00;;;6.37;;
13560;SDS011;6852;51.686;5.314;2023-04-15T07:53:06;10.40;;;6.70;;
13560;SDS011;6852;51.686;5.314;2023-04-15T07:55:33;8.27;;;5.83;;
13560;SDS011;6852;51.686;5.314;2023-04-15T07:58:00;7.93;;;6.20;;
13560;SDS011;6852;51.686;5.314;2023-04-15T08:00:27;6.73;;;5.80;;
13560;SDS011;6852;51.686;5.314;2023-04-15T08:02:55;7.77;;;5.87;;
13560;SDS011;6852;51.686;5.314;2023-04-15T08:05:23;6.10;;;4.90;;
13560;SDS011;6852;51.686;5.314;2023-04-15T08:07:50;6.77;;;5.20;;
13560;SDS011;6852;51.686;5.314;2023-04-15T08:10:17;7.30;;;5.43;;
13560;SDS011;6852;51.686;5.314;2023-04-15T08:12:44;8.20;;;5.70;;
13560;SDS011;6852;51.686;5.314;2023-04-15T08:15:14;7.60;;;5.53;;
13560;SDS011;6852;51.686;5.314;2023-04-15T08:17:42;7.87;;;6.03;;
13560;SDS011;6852;51.686;5.314;2023-04-15T08:20:09;10.07;;;7.47;;
13560;SDS011;6852;51.686;5.314;2023-04-15T08:22:36;6.97;;;6.20;;
13560;SDS011;6852;51.686;5.314;2023-04-15T08:25:03;6.10;;;5.37;;
13560;SDS011;6852;51.686;5.314;2023-04-15T08:27:30;6.57;;;4.80;;
13560;SDS011;6852;51.686;5.314;2023-04-15T08:29:57;5.57;;;4.97;;
13560;SDS011;6852;51.686;5.314;2023-04-15T08:32:24;5.80;;;4.87;;
13560;SDS011;6852;51.686;5.314;2023-04-15T08:34:52;5.73;;;5.10;;
13560;SDS011;6852;51.686;5.314;2023-04-15T08:37:19;5.80;;;5.07;;
13560;SDS011;6852;51.686;5.314;2023-04-15T08:39:46;7.93;;;4.40;;
13560;SDS011;6852;51.686;5.314;2023-04-15T08:42:16;5.17;;;4.13;;
13560;SDS011;6852;51.686;5.314;2023-04-15T08:44:48;5.27;;;4.17;;
13560;SDS011;6852;51.686;5.314;2023-04-15T08:47:16;4.07;;;3.67;;
13560;SDS011;6852;51.686;5.314;2023-04-15T08:49:47;5.97;;;4.00;;
13560;SDS011;6852;51.686;5.314;2023-04-15T08:52:19;7.33;;;4.10;;
13560;SDS011;6852;51.686;5.314;2023-04-15T08:54:46;4.70;;;3.57;;
13560;SDS011;6852;51.686;5.314;2023-04-15T08:57:13;7.67;;;4.50;;
13560;SDS011;6852;51.686;5.314;2023-04-15T08:59:41;4.97;;;3.80;;
13560;SDS011;6852;51.686;5.314;2023-04-15T09:02:09;6.63;;;4.10;;
13560;SDS011;6852;51.686;5.314;2023-04-15T09:04:37;4.80;;;3.50;;
13560;SDS011;6852;51.686;5.314;2023-04-15T09:07:04;5.47;;;3.40;;
13560;SDS011;6852;51.686;5.314;2023-04-15T09:09:31;4.20;;;3.20;;
13560;SDS011;6852;51.686;5.314;2023-04-15T09:12:00;6.93;;;4.03;;
13560;SDS011;6852;51.686;5.314;2023-04-15T09:14:27;5.30;;;3.73;;
13560;SDS011;6852;51.686;5.314;2023-04-15T09:17:01;3.77;;;3.37;;
13560;SDS011;6852;51.686;5.314;2023-04-15T09:19:29;5.70;;;3.10;;
13560;SDS011;6852;51.686;5.314;2023-04-15T09:21:58;3.93;;;3.07;;
13560;SDS011;6852;51.686;5.314;2023-04-15T09:24:32;3.30;;;2.90;;
13560;SDS011;6852;51.686;5.314;2023-04-15T09:27:03;3.23;;;2.90;;
13560;SDS011;6852;51.686;5.314;2023-04-15T09:29:30;3.67;;;2.97;;
13560;SDS011;6852;51.686;5.314;2023-04-15T09:32:10;4.40;;;2.50;;
13560;SDS011;6852;51.686;5.314;2023-04-15T09:34:38;4.57;;;2.23;;
13560;SDS011;6852;51.686;5.314;2023-04-15T09:37:05;3.20;;;2.40;;
13560;SDS011;6852;51.686;5.314;2023-04-15T09:39:50;3.00;;;2.43;;
13560;SDS011;6852;51.686;5.314;2023-04-15T09:42:18;2.60;;;1.90;;
13560;SDS011;6852;51.686;5.314;2023-04-15T09:44:50;7.90;;;2.87;;
13560;SDS011;6852;51.686;5.314;2023-04-15T09:47:30;5.53;;;3.00;;
13560;SDS011;6852;51.686;5.314;2023-04-15T09:49:58;4.37;;;2.93;;
13560;SDS011;6852;51.686;5.314;2023-04-15T09:52:26;3.83;;;3.03;;
13560;SDS011;6852;51.686;5.314;2023-04-15T09:54:55;2.83;;;2.50;;
13560;SDS011;6852;51.686;5.314;2023-04-15T09:57:23;4.30;;;3.10;;
13560;SDS011;6852;51.686;5.314;2023-04-15T09:59:51;3.93;;;2.70;;
13560;SDS011;6852;51.686;5.314;2023-04-15T10:02:18;5.13;;;2.83;;
13560;SDS011;6852;51.686;5.314;2023-04-15T10:04:48;4.23;;;3.43;;
13560;SDS011;6852;51.686;5.314;2023-04-15T10:07:17;5.40;;;2.97;;
13560;SDS011;6852;51.686;5.314;2023-04-15T10:09:47;4.50;;;2.97;;
13560;SDS011;6852;51.686;5.314;2023-04-15T10:12:15;3.63;;;2.90;;
13560;SDS011;6852;51.686;5.314;2023-04-15T10:14:43;5.30;;;2.87;;
13560;SDS011;6852;51.686;5.314;2023-04-15T10:17:13;4.53;;;3.00;;
13560;SDS011;6852;51.686;5.314;2023-04-15T10:19:43;3.13;;;2.57;;
13560;SDS011;6852;51.686;5.314;2023-04-15T10:22:11;6.63;;;3.20;;
13560;SDS011;6852;51.686;5.314;2023-04-15T10:24:40;2.97;;;2.70;;
13560;SDS011;6852;51.686;5.314;2023-04-15T10:27:07;4.57;;;2.63;;
13560;SDS011;6852;51.686;5.314;2023-04-15T10:29:35;2.50;;;2.20;;
13560;SDS011;6852;51.686;5.314;2023-04-15T10:32:02;3.33;;;2.70;;
13560;SDS011;6852;51.686;5.314;2023-04-15T10:34:30;2.37;;;1.90;;
13560;SDS011;6852;51.686;5.314;2023-04-15T10:37:00;2.63;;;1.90;;
13560;SDS011;6852;51.686;5.314;2023-04-15T10:42:09;2.80;;;2.60;;
13560;SDS011;6852;51.686;5.314;2023-04-15T10:44:38;3.77;;;1.90;;
13560;SDS011;6852;51.686;5.314;2023-04-15T10:47:12;2.70;;;2.10;;
13560;SDS011;6852;51.686;5.314;2023-04-15T10:49:46;2.93;;;1.93;;
13560;SDS011;6852;51.686;5.314;2023-04-15T10:52:22;3.27;;;2.20;;
13560;SDS011;6852;51.686;5.314;2023-04-15T10:55:01;3.53;;;2.33;;
13560;SDS011;6852;51.686;5.314;2023-04-15T10:57:43;2.30;;;1.90;;
13560;SDS011;6852;51.686;5.314;2023-04-15T11:00:11;5.47;;;2.33;;
13560;SDS011;6852;51.686;5.314;2023-04-15T11:02:44;3.93;;;1.63;;
13560;SDS011;6852;51.686;5.314;2023-04-15T11:05:13;3.53;;;1.67;;
13560;SDS011;6852;51.686;5.314;2023-04-15T11:12:58;3.00;;;2.23;;
13560;SDS011;6852;51.686;5.314;2023-04-15T11:15:28;2.27;;;2.07;;
13560;SDS011;6852;51.686;5.314;2023-04-15T11:20:57;2.83;;;2.30;;
13560;SDS011;6852;51.686;5.314;2023-04-15T11:23:35;5.90;;;3.17;;
13560;SDS011;6852;51.686;5.314;2023-04-15T11:26:09;2.60;;;2.20;;
13560;SDS011;6852;51.686;5.314;2023-04-15T11:28:41;3.27;;;2.50;;
13560;SDS011;6852;51.686;5.314;2023-04-15T11:31:11;4.70;;;2.10;;
13560;SDS011;6852;51.686;5.314;2023-04-15T11:36:13;3.03;;;2.27;;
13560;SDS011;6852;51.686;5.314;2023-04-15T11:38:43;3.40;;;2.40;;
13560;SDS011;6852;51.686;5.314;2023-04-15T11:41:12;2.43;;;2.03;;
13560;SDS011;6852;51.686;5.314;2023-04-15T11:43:39;2.90;;;2.20;;
13560;SDS011;6852;51.686;5.314;2023-04-15T11:46:06;2.20;;;2.00;;
13560;SDS011;6852;51.686;5.314;2023-04-15T11:48:34;2.87;;;2.57;;
13560;SDS011;6852;51.686;5.314;2023-04-15T11:51:03;5.87;;;1.80;;
13560;SDS011;6852;51.686;5.314;2023-04-15T11:53:35;2.53;;;1.87;;
13560;SDS011;6852;51.686;5.314;2023-04-15T11:56:10;3.43;;;1.97;;
13560;SDS011;6852;51.686;5.314;2023-04-15T11:58:43;5.47;;;2.07;;
13560;SDS011;6852;51.686;5.314;2023-04-15T12:01:12;1.90;;;1.70;;
13560;SDS011;6852;51.686;5.314;2023-04-15T12:03:40;3.63;;;2.47;;
13560;SDS011;6852;51.686;5.314;2023-04-15T12:06:16;2.37;;;2.07;;
13560;SDS011;6852;51.686;5.314;2023-04-15T12:14:07;5.40;;;2.10;;
13560;SDS011;6852;51.686;5.314;2023-04-15T12:16:46;2.60;;;2.10;;
13560;SDS011;6852;51.686;5.314;2023-04-15T12:19:27;4.23;;;2.47;;
13560;SDS011;6852;51.686;5.314;2023-04-15T12:22:02;3.03;;;1.87;;
13560;SDS011;6852;51.686;5.314;2023-04-15T12:24:32;1.77;;;1.67;;
13560;SDS011;6852;51.686;5.314;2023-04-15T12:27:03;4.00;;;1.80;;
13560;SDS011;6852;51.686;5.314;2023-04-15T12:29:32;1.90;;;1.60;;
13560;SDS011;6852;51.686;5.314;2023-04-15T12:32:11;3.03;;;1.70;;
13560;SDS011;6852;51.686;5.314;2023-04-15T12:34:39;1.63;;;1.50;;
13560;SDS011;6852;51.686;5.314;2023-04-15T12:37:08;1.70;;;1.60;;
13560;SDS011;6852;51.686;5.314;2023-04-15T12:39:38;2.07;;;1.50;;
13560;SDS011;6852;51.686;5.314;2023-04-15T12:42:06;3.70;;;1.93;;
13560;SDS011;6852;51.686;5.314;2023-04-15T12:44:35;1.80;;;1.57;;
13560;SDS011;6852;51.686;5.314;2023-04-15T12:47:02;1.73;;;1.47;;
13560;SDS011;6852;51.686;5.314;2023-04-15T12:49:30;1.60;;;1.50;;
13560;SDS011;6852;51.686;5.314;2023-04-15T12:51:58;2.03;;;1.80;;
13560;SDS011;6852;51.686;5.314;2023-04-15T12:54:26;3.63;;;2.10;;
13560;SDS011;6852;51.686;5.314;2023-04-15T12:56:54;2.97;;;2.20;;
13560;SDS011;6852;51.686;5.314;2023-04-15T12:59:21;2.73;;;1.90;;
13560;SDS011;6852;51.686;5.314;2023-04-15T13:01:51;2.37;;;1.37;;
13560;SDS011;6852;51.686;5.314;2023-04-15T13:04:19;3.20;;;1.27;;
13560;SDS011;6852;51.686;5.314;2023-04-15T13:06:47;2.40;;;1.70;;
13560;SDS011;6852;51.686;5.314;2023-04-15T13:09:14;3.80;;;1.70;;
13560;SDS011;6852;51.686;5.314;2023-04-15T13:11:41;4.37;;;1.60;;
13560;SDS011;6852;51.686;5.314;2023-04-15T13:14:09;3.20;;;2.40;;
13560;SDS011;6852;51.686;5.314;2023-04-15T13:16:38;1.73;;;1.57;;
13560;SDS011;6852;51.686;5.314;2023-04-15T13:19:05;1.53;;;1.30;;
13560;SDS011;6852;51.686;5.314;2023-04-15T13:21:32;2.80;;;1.40;;
13560;SDS011;6852;51.686;5.314;2023-04-15T13:24:01;2.33;;;1.40;;
13560;SDS011;6852;51.686;5.314;2023-04-15T13:26:29;1.90;;;1.40;;
13560;SDS011;6852;51.686;5.314;2023-04-15T13:28:57;1.30;;;1.00;;
13560;SDS011;6852;51.686;5.314;2023-04-15T13:31:24;2.80;;;1.03;;
13560;SDS011;6852;51.686;5.314;2023-04-15T13:33:51;2.27;;;1.13;;
13560;SDS011;6852;51.686;5.314;2023-04-15T13:36:18;1.10;;;0.90;;
13560;SDS011;6852;51.686;5.314;2023-04-15T13:38:45;1.63;;;1.20;;
13560;SDS011;6852;51.686;5.314;2023-04-15T13:41:16;1.73;;;0.90;;
13560;SDS011;6852;51.686;5.314;2023-04-15T13:43:43;3.00;;;1.60;;
13560;SDS011;6852;51.686;5.314;2023-04-15T13:46:09;5.40;;;2.37;;
13560;SDS011;6852;51.686;5.314;2023-04-15T13:48:36;3.63;;;1.30;;
13560;SDS011;6852;51.686;5.314;2023-04-15T13:51:03;2.10;;;1.20;;
13560;SDS011;6852;51.686;5.314;2023-04-15T13:53:30;3.87;;;2.10;;
13560;SDS011;6852;51.686;5.314;2023-04-15T13:56:05;2.20;;;1.20;;
13560;SDS011;6852;51.686;5.314;2023-04-15T13:58:33;2.90;;;1.40;;
13560;SDS011;6852;51.686;5.314;2023-04-15T14:00:59;2.37;;;1.20;;
13560;SDS011;6852;51.686;5.314;2023-04-15T14:03:29;2.13;;;1.50;;
13560;SDS011;6852;51.686;5.314;2023-04-15T14:05:57;1.20;;;1.10;;
13560;SDS011;6852;51.686;5.314;2023-04-15T14:08:24;1.63;;;1.10;;
13560;SDS011;6852;51.686;5.314;2023-04-15T14:10:51;3.07;;;1.17;;
13560;SDS011;6852;51.686;5.314;2023-04-15T14:13:18;2.17;;;1.17;;
13560;SDS011;6852;51.686;5.314;2023-04-15T14:15:45;1.97;;;1.23;;
13560;SDS011;6852;51.686;5.314;2023-04-15T14:18:12;1.57;;;1.23;;
13560;SDS011;6852;51.686;5.314;2023-04-15T14:20:39;2.13;;;1.20;;
13560;SDS011;6852;51.686;5.314;2023-04-15T14:23:06;2.80;;;1.37;;
13560;SDS011;6852;51.686;5.314;2023-04-15T14:25:33;1.90;;;0.93;;
13560;SDS011;6852;51.686;5.314;2023-04-15T14:28:00;2.30;;;0.80;;
13560;SDS011;6852;51.686;5.314;2023-04-15T14:30:28;2.87;;;1.00;;
13560;SDS011;6852;51.686;5.314;2023-04-15T14:32:56;1.60;;;1.23;;
13560;SDS011;6852;51.686;5.314;2023-04-15T14:35:23;1.73;;;1.00;;
13560;SDS011;6852;51.686;5.314;2023-04-15T14:37:52;2.83;;;1.00;;
13560;SDS011;6852;51.686;5.314;2023-04-15T14:40:19;1.30;;;0.90;;
13560;SDS011;6852;51.686;5.314;2023-04-15T14:42:46;2.60;;;1.23;;
13560;SDS011;6852;51.686;5.314;2023-04-15T14:45:14;2.07;;;1.20;;
13560;SDS011;6852;51.686;5.314;2023-04-15T14:47:40;1.50;;;1.10;;
13560;SDS011;6852;51.686;5.314;2023-04-15T14:50:08;2.30;;;0.90;;
13560;SDS011;6852;51.686;5.314;2023-04-15T14:52:35;2.23;;;1.33;;
13560;SDS011;6852;51.686;5.314;2023-04-15T14:55:08;1.03;;;0.80;;
13560;SDS011;6852;51.686;5.314;2023-04-15T14:57:37;2.10;;;0.80;;
13560;SDS011;6852;51.686;5.314;2023-04-15T15:00:05;1.93;;;1.30;;
13560;SDS011;6852;51.686;5.314;2023-04-15T15:02:33;1.23;;;0.87;;
13560;SDS011;6852;51.686;5.314;2023-04-15T15:05:05;1.37;;;0.80;;
13560;SDS011;6852;51.686;5.314;2023-04-15T15:07:33;1.50;;;1.00;;
13560;SDS011;6852;51.686;5.314;2023-04-15T15:10:02;4.07;;;1.20;;
13560;SDS011;6852;51.686;5.314;2023-04-15T15:12:30;2.47;;;1.10;;
13560;SDS011;6852;51.686;5.314;2023-04-15T15:14:57;2.67;;;1.43;;
13560;SDS011;6852;51.686;5.314;2023-04-15T15:17:24;1.07;;;0.77;;
13560;SDS011;6852;51.686;5.314;2023-04-15T15:19:51;2.07;;;1.03;;
13560;SDS011;6852;51.686;5.314;2023-04-15T15:22:18;4.33;;;2.97;;
13560;SDS011;6852;51.686;5.314;2023-04-15T15:24:46;2.17;;;1.47;;